Welcome to Northern Hawkes Bay. New Zealand.
PWS Header
      nz Flag



Hit Counter


W3C Valid W3C Valid logo


    Wairoa

Select any of the Stations below to visit their websites.










Historic Data from Weather Underground
Select the location of interest below. Wairoa is the default. Please have patience, this Data is slow to load in.
Northern Hawkes Bay Historical Data
Daily Summary for February 10, 2017 Units:  Metric    English   Both
« Previous Day
Next Day »
Daily Weekly Monthly Yearly Custom
  High: Low: Average:
Temperature: 21.2 °C 9.5 °C 15.3 °C
Dew Point: 12.2 °C 9.3 °C 10.8 °C
Humidity: 99% 49% 76%
Wind Speed: 14.8km/h 0.0km/h 5.8km/h
Wind Gust: 25.6km/h - -
Wind- - SSW
Pressure: 1018.8 hPa 1008.7 hPa -
Precipitation: 0.0 mm    
Historical Graphs
 
 
Tabular Data for February 10, 2017
Time Temperature Dew Point Pressure Wind Wind Speed Wind Gust Humidity Rainfall Rate (Hourly) solar
00:04 12.7 °C 10.8 °C 1018.8 hPa North 2.6 km/h 6.1 km/h 88% 0.0 mm 0 W/m2
00:09 12.6 °C 10.7 °C 1018.8 hPa NNW 3.5 km/h 7.2 km/h 88% 0.0 mm 0 W/m2
00:14 12.6 °C 10.7 °C 1018.8 hPa NNW 1.1 km/h 7.2 km/h 88% 0.0 mm 0 W/m2
00:19 12.4 °C 10.4 °C 1018.8 hPa Calm   7.2 km/h 88% 0.0 mm 0 W/m2
00:24 12.3 °C 10.6 °C 1018.8 hPa North 2.6 km/h 5.0 km/h 89% 0.0 mm 0 W/m2
00:29 12.3 °C 10.7 °C 1018.8 hPa NNW 5.0 km/h 6.1 km/h 90% 0.0 mm 0 W/m2
00:34 12.3 °C 10.7 °C 1018.8 hPa NNW 3.5 km/h 6.1 km/h 90% 0.0 mm 0 W/m2
00:39 12.2 °C 10.8 °C 1018.5 hPa NNW 2.6 km/h 7.2 km/h 91% 0.0 mm 0 W/m2
00:44 12.1 °C 10.7 °C 1018.5 hPa NNW 1.1 km/h 7.2 km/h 91% 0.0 mm 0 W/m2
00:49 12.1 °C 10.8 °C 1018.8 hPa NNW 3.5 km/h 7.2 km/h 92% 0.0 mm 0 W/m2
00:54 12.1 °C 10.8 °C 1018.5 hPa NNW 3.5 km/h 7.2 km/h 92% 0.0 mm 0 W/m2
00:59 12.1 °C 10.8 °C 1018.2 hPa NNW 6.1 km/h 9.7 km/h 92% 0.0 mm 0 W/m2
01:04 12.1 °C 10.8 °C 1018.2 hPa NNW 6.1 km/h 9.7 km/h 92% 0.0 mm 0 W/m2
01:09 12.0 °C 10.9 °C 1018.2 hPa NNW 3.5 km/h 12.2 km/h 93% 0.0 mm 0 W/m2
01:14 12.0 °C 10.9 °C 1018.2 hPa North 2.6 km/h 12.2 km/h 93% 0.0 mm 0 W/m2
01:19 11.9 °C 10.9 °C 1018.2 hPa North 3.5 km/h 8.7 km/h 94% 0.0 mm 0 W/m2
01:24 11.9 °C 10.9 °C 1017.8 hPa North 3.5 km/h 7.2 km/h 94% 0.0 mm 0 W/m2
01:29 11.9 °C 10.9 °C 1018.2 hPa NNW 3.5 km/h 8.7 km/h 94% 0.0 mm 0 W/m2
01:34 11.8 °C 10.9 °C 1017.8 hPa NNW 2.6 km/h 8.7 km/h 94% 0.0 mm 0 W/m2
01:39 11.8 °C 11.1 °C 1017.8 hPa North 2.6 km/h 9.7 km/h 95% 0.0 mm 0 W/m2
01:44 11.8 °C 11.1 °C 1017.8 hPa North 6.1 km/h 9.7 km/h 95% 0.0 mm 0 W/m2
01:49 11.8 °C 11.1 °C 1017.8 hPa North 2.6 km/h 8.7 km/h 95% 0.0 mm 0 W/m2
01:54 11.7 °C 10.9 °C 1017.8 hPa North 2.6 km/h 8.7 km/h 95% 0.0 mm 0 W/m2
01:59 11.7 °C 10.9 °C 1017.8 hPa North 5.0 km/h 9.7 km/h 95% 0.0 mm 0 W/m2
02:04 11.6 °C 10.8 °C 1017.8 hPa North 5.0 km/h 11.1 km/h 95% 0.0 mm 0 W/m2
02:09 11.4 °C 10.6 °C 1017.5 hPa NNW 6.1 km/h 11.1 km/h 95% 0.0 mm 0 W/m2
02:14 11.3 °C 10.6 °C 1017.5 hPa North 5.0 km/h 9.7 km/h 95% 0.0 mm 0 W/m2
02:19 11.3 °C 10.7 °C 1017.5 hPa North 2.6 km/h 7.2 km/h 96% 0.0 mm 0 W/m2
02:24 11.2 °C 10.6 °C 1017.2 hPa North 2.6 km/h 7.2 km/h 96% 0.0 mm 0 W/m2
02:30 11.1 °C 10.5 °C 1017.5 hPa North 2.6 km/h 7.2 km/h 96% 0.0 mm 0 W/m2
02:35 11.0 °C 10.4 °C 1017.5 hPa NNW 6.1 km/h 9.7 km/h 96% 0.0 mm 0 W/m2
02:40 10.9 °C 10.6 °C 1017.2 hPa NNW 5.0 km/h 9.7 km/h 98% 0.0 mm 0 W/m2
02:45 10.8 °C 10.5 °C 1017.2 hPa NNW 3.5 km/h 9.7 km/h 98% 0.0 mm 0 W/m2
02:50 10.8 °C 10.5 °C 1017.2 hPa North 6.1 km/h 12.2 km/h 98% 0.0 mm 0 W/m2
02:55 10.8 °C 10.5 °C 1016.8 hPa NNW 7.2 km/h 12.2 km/h 98% 0.0 mm 0 W/m2
03:00 10.7 °C 10.4 °C 1016.8 hPa NNW 3.5 km/h 9.7 km/h 98% 0.0 mm 0 W/m2
03:05 10.7 °C 10.6 °C 1016.8 hPa North 3.5 km/h 9.7 km/h 99% 0.0 mm 0 W/m2
03:10 10.6 °C 10.4 °C 1016.8 hPa North 2.6 km/h 9.7 km/h 99% 0.0 mm 0 W/m2
03:15 10.6 °C 10.4 °C 1016.5 hPa NNW 5.0 km/h 9.7 km/h 99% 0.0 mm 0 W/m2
03:20 10.6 °C 10.4 °C 1016.5 hPa NNW 5.0 km/h 8.7 km/h 99% 0.0 mm 0 W/m2
03:25 10.6 °C 10.4 °C 1016.8 hPa NNW 6.1 km/h 8.7 km/h 99% 0.0 mm 0 W/m2
03:30 10.6 °C 10.4 °C 1016.5 hPa NNW 2.6 km/h 8.7 km/h 99% 0.0 mm 0 W/m2
03:35 10.6 °C 10.4 °C 1016.5 hPa NNW 5.0 km/h 8.7 km/h 99% 0.0 mm 0 W/m2
03:40 10.6 °C 10.4 °C 1016.5 hPa NNW 5.0 km/h 8.7 km/h 99% 0.0 mm 0 W/m2
03:45 10.7 °C 10.6 °C 1016.1 hPa NNW 3.5 km/h 9.7 km/h 99% 0.0 mm 0 W/m2
03:50 10.7 °C 10.6 °C 1016.1 hPa NNW 5.0 km/h 9.7 km/h 99% 0.0 mm 0 W/m2
03:55 10.7 °C 10.6 °C 1016.1 hPa NNW 3.5 km/h 9.7 km/h 99% 0.0 mm 0 W/m2
04:00 10.6 °C 10.4 °C 1016.1 hPa NNW 5.0 km/h 7.2 km/h 99% 0.0 mm 0 W/m2
04:05 10.6 °C 10.4 °C 1016.1 hPa NNW 5.0 km/h 8.7 km/h 99% 0.0 mm 0 W/m2
04:10 10.5 °C 10.3 °C 1016.1 hPa NW 3.5 km/h 8.7 km/h 99% 0.0 mm 0 W/m2
04:15 10.4 °C 10.3 °C 1015.8 hPa NNW 3.5 km/h 8.7 km/h 99% 0.0 mm 0 W/m2
04:20 10.3 °C 10.2 °C 1015.8 hPa NW 3.5 km/h 7.2 km/h 99% 0.0 mm 0 W/m2
04:25 10.2 °C 9.9 °C 1015.8 hPa NNW 6.1 km/h 8.7 km/h 98% 0.0 mm 0 W/m2
04:30 10.1 °C 9.8 °C 1015.8 hPa NNW 6.1 km/h 8.7 km/h 98% 0.0 mm 0 W/m2
04:35 10.1 °C 9.9 °C 1015.8 hPa NNW 7.2 km/h 9.7 km/h 99% 0.0 mm 0 W/m2
04:40 10.1 °C 9.9 °C 1015.5 hPa NNW 7.2 km/h 11.1 km/h 99% 0.0 mm 0 W/m2
04:45 10.1 °C 9.9 °C 1015.5 hPa NNW 6.1 km/h 11.1 km/h 99% 0.0 mm 0 W/m2
04:50 10.1 °C 9.9 °C 1015.5 hPa NNW 6.1 km/h 9.7 km/h 99% 0.0 mm 0 W/m2
04:55 10.1 °C 9.9 °C 1015.5 hPa NNW 3.5 km/h 9.7 km/h 99% 0.0 mm 0 W/m2
05:00 10.1 °C 9.9 °C 1015.5 hPa NNW 6.1 km/h 9.7 km/h 99% 0.0 mm 0 W/m2
05:05 10.1 °C 9.9 °C 1015.5 hPa NNW 5.0 km/h 9.7 km/h 99% 0.0 mm 0 W/m2
05:10 10.1 °C 9.9 °C 1015.1 hPa NNW 5.0 km/h 8.7 km/h 99% 0.0 mm 0 W/m2
05:15 10.2 °C 10.1 °C 1015.1 hPa NNW 6.1 km/h 11.1 km/h 99% 0.0 mm 0 W/m2
05:20 10.2 °C 10.1 °C 1015.1 hPa NNW 3.5 km/h 11.1 km/h 99% 0.0 mm 0 W/m2
05:25 10.3 °C 10.2 °C 1015.5 hPa NNW 2.6 km/h 7.2 km/h 99% 0.0 mm 0 W/m2
05:30 10.3 °C 10.2 °C 1015.5 hPa NNW 2.6 km/h 6.1 km/h 99% 0.0 mm 0 W/m2
05:35 10.3 °C 10.2 °C 1015.1 hPa NNW 5.0 km/h 7.2 km/h 99% 0.0 mm 0 W/m2
05:40 10.3 °C 10.2 °C 1015.5 hPa NNW 7.2 km/h 9.7 km/h 99% 0.0 mm 0 W/m2
05:45 10.3 °C 10.2 °C 1015.5 hPa NW 2.6 km/h 9.7 km/h 99% 0.0 mm 0 W/m2
05:50 10.2 °C 10.1 °C 1015.5 hPa NW 7.2 km/h 9.7 km/h 99% 0.0 mm 0 W/m2
05:55 10.1 °C 9.9 °C 1015.5 hPa NW 7.2 km/h 13.4 km/h 99% 0.0 mm 0 W/m2
06:00 9.9 °C 9.8 °C 1015.1 hPa NW 5.0 km/h 13.4 km/h 99% 0.0 mm 0 W/m2
06:05 9.8 °C 9.7 °C 1015.1 hPa NNW 6.1 km/h 11.1 km/h 99% 0.0 mm 0 W/m2
06:07 9.8 °C 9.7 °C 1015.1 hPa NNW 7.2 km/h 11.1 km/h 99% 0.0 mm 0 W/m2
06:12 9.7 °C 9.6 °C 1015.1 hPa NNW 6.1 km/h 11.1 km/h 99% 0.0 mm 0 W/m2
06:17 9.6 °C 9.4 °C 1015.5 hPa NW 7.2 km/h 11.1 km/h 99% 0.0 mm 0 W/m2
06:22 9.5 °C 9.3 °C 1015.5 hPa NNW 7.2 km/h 12.2 km/h 99% 0.0 mm 0 W/m2
06:27 9.5 °C 9.3 °C 1015.1 hPa NNW 8.7 km/h 12.2 km/h 99% 0.0 mm 0 W/m2
06:32 9.5 °C 9.3 °C 1015.5 hPa NNW 8.7 km/h 13.4 km/h 99% 0.0 mm 1 W/m2
06:37 9.5 °C 9.3 °C 1015.5 hPa NNW 5.0 km/h 14.8 km/h 99% 0.0 mm 3 W/m2
06:42 9.6 °C 9.4 °C 1015.1 hPa NNW 5.0 km/h 14.8 km/h 99% 0.0 mm 5 W/m2
06:47 9.6 °C 9.4 °C 1015.1 hPa NW 5.0 km/h 11.1 km/h 99% 0.0 mm 10 W/m2
06:52 9.7 °C 9.6 °C 1015.1 hPa NNW 6.1 km/h 11.1 km/h 99% 0.0 mm 14 W/m2
06:57 9.7 °C 9.6 °C 1015.1 hPa North 6.1 km/h 9.7 km/h 99% 0.0 mm 20 W/m2
07:02 9.7 °C 9.6 °C 1015.1 hPa NNW 3.5 km/h 9.7 km/h 99% 0.0 mm 25 W/m2
07:07 9.7 °C 9.6 °C 1015.1 hPa NNW 5.0 km/h 11.1 km/h 99% 0.0 mm 31 W/m2
07:12 9.8 °C 9.7 °C 1015.1 hPa NNW 5.0 km/h 11.1 km/h 99% 0.0 mm 40 W/m2
07:17 10.1 °C 9.9 °C 1015.1 hPa NNW 5.0 km/h 11.1 km/h 99% 0.0 mm 85 W/m2
07:22 10.4 °C 10.3 °C 1015.1 hPa NNW 6.1 km/h 14.8 km/h 99% 0.0 mm 101 W/m2
07:27 10.6 °C 10.4 °C 1015.1 hPa NNW 9.7 km/h 14.8 km/h 99% 0.0 mm 66 W/m2
07:32 10.6 °C 10.4 °C 1015.1 hPa North 6.1 km/h 13.4 km/h 99% 0.0 mm 109 W/m2
07:37 10.9 °C 10.4 °C 1015.1 hPa NNW 8.7 km/h 13.4 km/h 97% 0.0 mm 109 W/m2
07:42 11.3 °C 10.6 °C 1015.1 hPa NNW 8.7 km/h 13.4 km/h 95% 0.0 mm 115 W/m2
07:47 11.4 °C 10.2 °C 1015.1 hPa NNW 8.7 km/h 13.4 km/h 92% 0.0 mm 123 W/m2
07:52 11.5 °C 10.1 °C 1015.1 hPa NNW 5.0 km/h 13.4 km/h 91% 0.0 mm 135 W/m2
07:57 11.7 °C 10.1 °C 1015.5 hPa NNW 7.2 km/h 13.4 km/h 90% 0.0 mm 145 W/m2
08:02 11.8 °C 10.1 °C 1015.1 hPa NNW 5.0 km/h 12.2 km/h 89% 0.0 mm 163 W/m2
08:07 12.2 °C 10.1 °C 1015.5 hPa NNW 7.2 km/h 13.4 km/h 87% 0.0 mm 166 W/m2
08:12 12.3 °C 9.8 °C 1015.5 hPa North 5.0 km/h 15.8 km/h 85% 0.0 mm 186 W/m2
08:28 12.7 °C 10.1 °C 1015.5 hPa NNW 7.2 km/h 17.2 km/h 84% 0.0 mm 227 W/m2
08:33 13.0 °C 10.4 °C 1015.5 hPa North 8.7 km/h 17.2 km/h 84% 0.3 mm 168 W/m2
08:38 13.1 °C 10.4 °C 1015.5 hPa North 7.2 km/h 14.8 km/h 84% 0.3 mm 257 W/m2
08:43 13.0 °C 10.0 °C 1015.5 hPa NNE 5.0 km/h 14.8 km/h 82% 0.3 mm 131 W/m2
08:48 13.0 °C 10.2 °C 1015.5 hPa North 5.0 km/h 12.2 km/h 83% 0.3 mm 282 W/m2
08:53 13.5 °C 10.7 °C 1015.1 hPa North 5.0 km/h 12.2 km/h 83% 0.3 mm 296 W/m2
08:58 14.0 °C 10.6 °C 1015.5 hPa NNW 7.2 km/h 12.2 km/h 80% 0.3 mm 304 W/m2
09:03 14.0 °C 10.4 °C 1015.5 hPa NW 7.2 km/h 12.2 km/h 79% 0.3 mm 313 W/m2
09:08 14.5 °C 10.9 °C 1015.5 hPa NW 6.1 km/h 12.2 km/h 79% 0.3 mm 329 W/m2
09:12 14.8 °C 11.0 °C 1015.5 hPa North 7.2 km/h 12.2 km/h 78% 0.3 mm 341 W/m2
09:17 14.8 °C 10.8 °C 1015.5 hPa North 7.2 km/h 12.2 km/h 77% 0.3 mm 355 W/m2
09:22 15.0 °C 10.8 °C 1015.5 hPa NNW 3.5 km/h 12.2 km/h 76% 0.3 mm 370 W/m2
09:27 15.5 °C 11.1 °C 1015.5 hPa NNW 7.2 km/h 11.1 km/h 75% 0.3 mm 387 W/m2
09:32 15.5 °C 10.9 °C 1015.5 hPa NNW 7.2 km/h 11.1 km/h 74% 0.0 mm 404 W/m2
09:37 15.7 °C 11.1 °C 1015.5 hPa North 5.0 km/h 11.1 km/h 74% 0.0 mm 425 W/m2
09:42 15.9 °C 11.1 °C 1015.5 hPa NNW 2.6 km/h 11.1 km/h 73% 0.0 mm 456 W/m2
09:47 16.3 °C 11.3 °C 1015.5 hPa NW 6.1 km/h 11.1 km/h 72% 0.0 mm 502 W/m2
09:52 16.2 °C 11.2 °C 1015.5 hPa Calm   11.1 km/h 72% 0.0 mm 339 W/m2
09:57 17.3 °C 12.0 °C 1015.5 hPa Calm   9.7 km/h 71% 0.0 mm 440 W/m2
10:02 18.2 °C 12.0 °C 1015.5 hPa NNW 5.0 km/h 8.7 km/h 67% 0.0 mm 526 W/m2
10:07 18.3 °C 11.8 °C 1015.5 hPa NW 5.0 km/h 11.1 km/h 66% 0.0 mm 559 W/m2
10:12 18.4 °C 12.2 °C 1015.1 hPa Calm   11.1 km/h 67% 0.0 mm 335 W/m2
10:17 18.3 °C 11.4 °C 1015.5 hPa SSW 8.7 km/h 14.8 km/h 64% 0.0 mm 419 W/m2
10:22 17.6 °C 10.7 °C 1015.1 hPa SSW 11.1 km/h 15.8 km/h 64% 0.0 mm 679 W/m2
10:27 17.5 °C 11.1 °C 1015.5 hPa SW 13.4 km/h 17.2 km/h 66% 0.0 mm 718 W/m2
10:32 17.9 °C 11.4 °C 1015.1 hPa SW 8.7 km/h 17.2 km/h 66% 0.0 mm 498 W/m2
10:37 17.9 °C 11.2 °C 1015.1 hPa SSW 7.2 km/h 17.2 km/h 65% 0.0 mm 513 W/m2
10:42 17.6 °C 10.7 °C 1015.1 hPa SW 9.7 km/h 15.8 km/h 64% 0.0 mm 513 W/m2
10:47 17.3 °C 10.7 °C 1015.1 hPa WSW 5.0 km/h 15.8 km/h 65% 0.0 mm 588 W/m2
10:52 17.7 °C 11.1 °C 1015.1 hPa SW 11.1 km/h 15.8 km/h 65% 0.0 mm 618 W/m2
10:57 18.1 °C 11.2 °C 1015.1 hPa SW 9.7 km/h 15.8 km/h 64% 0.0 mm 744 W/m2
11:02 18.3 °C 11.4 °C 1015.1 hPa SSW 6.1 km/h 15.8 km/h 64% 0.0 mm 420 W/m2
11:07 17.6 °C 10.9 °C 1014.8 hPa SW 8.7 km/h 15.8 km/h 65% 0.0 mm 657 W/m2
11:12 17.9 °C 11.0 °C 1014.8 hPa SW 11.1 km/h 17.2 km/h 64% 0.0 mm 899 W/m2
11:17 18.2 °C 11.5 °C 1014.8 hPa SSW 11.1 km/h 17.2 km/h 65% 0.0 mm 880 W/m2
11:22 18.2 °C 11.5 °C 1014.8 hPa SSW 7.2 km/h 15.8 km/h 65% 0.0 mm 836 W/m2
11:27 18.6 °C 11.2 °C 1014.4 hPa SSW 9.7 km/h 18.3 km/h 62% 0.0 mm 846 W/m2
11:32 18.4 °C 10.8 °C 1014.4 hPa SSW 6.1 km/h 18.3 km/h 61% 0.0 mm 857 W/m2
11:37 18.2 °C 11.5 °C 1014.1 hPa SW 7.2 km/h 20.9 km/h 65% 0.0 mm 871 W/m2
11:42 18.1 °C 11.2 °C 1014.1 hPa SSW 11.1 km/h 20.9 km/h 64% 0.0 mm 883 W/m2
11:47 17.9 °C 11.0 °C 1014.1 hPa SSW 14.8 km/h 18.3 km/h 64% 0.0 mm 888 W/m2
11:55 17.6 °C 10.9 °C 1014.1 hPa South 11.1 km/h 19.5 km/h 65% 0.0 mm 898 W/m2
12:01 18.1 °C 11.7 °C 1014.1 hPa SSW 12.2 km/h 18.3 km/h 66% 0.0 mm 911 W/m2
12:07 18.1 °C 11.4 °C 1013.8 hPa SSW 9.7 km/h 19.5 km/h 65% 0.0 mm 918 W/m2
12:12 18.4 °C 11.2 °C 1013.8 hPa SSW 12.2 km/h 19.5 km/h 63% 0.0 mm 925 W/m2
12:17 18.2 °C 11.1 °C 1013.4 hPa South 8.7 km/h 17.2 km/h 63% 0.0 mm 905 W/m2
12:22 18.3 °C 10.9 °C 1013.4 hPa South 11.1 km/h 19.5 km/h 62% 0.0 mm 930 W/m2
12:27 18.2 °C 10.3 °C 1013.4 hPa SSW 8.7 km/h 19.5 km/h 60% 0.0 mm 932 W/m2
12:32 18.6 °C 10.7 °C 1013.4 hPa South 8.7 km/h 17.2 km/h 60% 0.0 mm 937 W/m2
12:39 19.0 °C 10.6 °C 1013.4 hPa SSW 8.7 km/h 19.5 km/h 58% 0.0 mm 943 W/m2
12:44 18.6 °C 10.9 °C 1013.4 hPa SSW 14.8 km/h 18.3 km/h 61% 0.0 mm 943 W/m2
12:49 18.5 °C 10.8 °C 1013.4 hPa SSW 9.7 km/h 18.3 km/h 61% 0.0 mm 943 W/m2
12:55 18.3 °C 10.7 °C 1013.1 hPa SSW 8.7 km/h 19.5 km/h 61% 0.0 mm 941 W/m2
13:00 18.8 °C 10.9 °C 1013.4 hPa South 9.7 km/h 19.5 km/h 60% 0.0 mm 946 W/m2
13:05 18.9 °C 11.2 °C 1013.1 hPa South 8.7 km/h 18.3 km/h 61% 0.0 mm 943 W/m2
13:14 18.5 °C 11.6 °C 1013.1 hPa South 13.4 km/h 19.5 km/h 64% 0.0 mm 932 W/m2
13:19 18.6 °C 10.4 °C 1013.1 hPa South 12.2 km/h 19.5 km/h 59% 0.0 mm 944 W/m2
13:24 18.7 °C 10.8 °C 1012.8 hPa SSW 14.8 km/h 20.9 km/h 60% 0.0 mm 692 W/m2
13:30 18.5 °C 10.6 °C 1012.8 hPa South 11.1 km/h 20.9 km/h 60% 0.0 mm 918 W/m2
13:35 18.9 °C 10.2 °C 1012.8 hPa South 11.1 km/h 19.5 km/h 57% 0.0 mm 913 W/m2
13:40 19.1 °C 10.1 °C 1012.8 hPa SSW 12.2 km/h 19.5 km/h 56% 0.0 mm 911 W/m2
13:45 18.8 °C 11.1 °C 1012.4 hPa SSW 8.7 km/h 18.3 km/h 61% 0.0 mm 903 W/m2
13:48 19.0 °C 10.8 °C 1012.4 hPa South 11.1 km/h 18.3 km/h 59% 0.0 mm 900 W/m2
13:53 18.7 °C 10.3 °C 1012.4 hPa SSW 12.2 km/h 18.3 km/h 58% 0.0 mm 891 W/m2
13:59 18.7 °C 10.3 °C 1012.1 hPa South 11.1 km/h 19.5 km/h 58% 0.0 mm 878 W/m2
14:04 19.0 °C 9.8 °C 1012.1 hPa South 9.7 km/h 19.5 km/h 55% 0.0 mm 875 W/m2
14:09 18.6 °C 9.7 °C 1012.1 hPa South 11.1 km/h 17.2 km/h 56% 0.0 mm 866 W/m2
14:15 19.1 °C 10.1 °C 1012.1 hPa South 7.2 km/h 18.3 km/h 56% 0.0 mm 859 W/m2
14:20 19.1 °C 9.8 °C 1012.1 hPa SSE 8.7 km/h 18.3 km/h 55% 0.0 mm 847 W/m2
14:25 19.4 °C 9.9 °C 1012.1 hPa SSE 11.1 km/h 17.2 km/h 54% 0.0 mm 843 W/m2
14:35 18.9 °C 10.4 °C 1011.7 hPa South 13.4 km/h 18.3 km/h 58% 0.0 mm 818 W/m2
14:41 19.4 °C 10.4 °C 1011.7 hPa SSE 7.2 km/h 18.3 km/h 56% 0.0 mm 791 W/m2
14:46 19.5 °C 10.5 °C 1011.7 hPa SSE 7.2 km/h 14.8 km/h 56% 0.0 mm 798 W/m2
14:51 19.7 °C 10.7 °C 1011.4 hPa SE 8.7 km/h 21.9 km/h 56% 0.0 mm 779 W/m2
14:56 19.5 °C 11.1 °C 1011.4 hPa ESE 12.2 km/h 21.9 km/h 58% 0.0 mm 764 W/m2
15:01 19.6 °C 10.8 °C 1011.4 hPa SE 5.0 km/h 17.2 km/h 57% 0.0 mm 416 W/m2
15:06 20.0 °C 10.9 °C 1011.1 hPa SE 6.1 km/h 17.2 km/h 56% 0.0 mm 744 W/m2
15:08 20.1 °C 11.1 °C 1011.4 hPa SE 5.0 km/h 17.2 km/h 56% 0.0 mm 743 W/m2
15:12 20.3 °C 11.2 °C 1011.1 hPa SSE 7.2 km/h 17.2 km/h 56% 0.0 mm 717 W/m2
15:17 20.3 °C 11.2 °C 1011.1 hPa SE 6.1 km/h 15.8 km/h 56% 0.0 mm 99 W/m2
15:22 20.0 °C 10.9 °C 1011.1 hPa SE 7.2 km/h 25.6 km/h 56% 0.0 mm 539 W/m2
15:27 20.2 °C 11.4 °C 1011.1 hPa SE 7.2 km/h 25.6 km/h 57% 0.0 mm 617 W/m2
15:32 20.4 °C 11.3 °C 1010.7 hPa SE 9.7 km/h 18.3 km/h 56% 0.0 mm 625 W/m2
15:37 20.2 °C 11.4 °C 1010.7 hPa SE 6.1 km/h 19.5 km/h 57% 0.0 mm 666 W/m2
15:39 20.2 °C 11.4 °C 1010.7 hPa SE 6.1 km/h 19.5 km/h 57% 0.0 mm 675 W/m2
15:42 20.4 °C 11.9 °C 1010.7 hPa SSE 8.7 km/h 19.5 km/h 58% 0.0 mm 668 W/m2
15:47 20.6 °C 11.3 °C 1010.7 hPa SSE 5.0 km/h 17.2 km/h 55% 0.0 mm 644 W/m2
15:52 20.7 °C 11.1 °C 1010.7 hPa SE 8.7 km/h 17.2 km/h 54% 0.0 mm 447 W/m2
15:57 20.8 °C 11.4 °C 1010.4 hPa SE 5.0 km/h 15.8 km/h 55% 0.0 mm 387 W/m2
16:02 21.2 °C 11.6 °C 1010.7 hPa ESE 6.1 km/h 15.8 km/h 54% 0.0 mm 400 W/m2
16:07 20.9 °C 11.6 °C 1010.4 hPa SSE 6.1 km/h 15.8 km/h 55% 0.0 mm 395 W/m2
16:12 20.8 °C 10.9 °C 1010.4 hPa SE 7.2 km/h 17.2 km/h 53% 0.0 mm 616 W/m2
16:17 21.0 °C 11.6 °C 1010.0 hPa SE 8.7 km/h 17.2 km/h 55% 0.0 mm 259 W/m2
16:22 21.1 °C 11.7 °C 1010.0 hPa SSE 8.7 km/h 19.5 km/h 55% 0.0 mm 503 W/m2
16:27 21.0 °C 11.6 °C 1010.0 hPa SE 5.0 km/h 19.5 km/h 55% 0.0 mm 323 W/m2
16:32 20.8 °C 11.7 °C 1010.0 hPa SE 6.1 km/h 18.3 km/h 56% 0.0 mm 410 W/m2
16:37 20.3 °C 11.0 °C 1010.4 hPa SE 8.7 km/h 17.2 km/h 55% 0.0 mm 402 W/m2
16:42 20.2 °C 11.4 °C 1010.0 hPa SE 9.7 km/h 17.2 km/h 57% 0.0 mm 352 W/m2
16:47 19.8 °C 11.3 °C 1010.0 hPa SE 9.7 km/h 17.2 km/h 58% 0.0 mm 290 W/m2
16:52 19.5 °C 10.8 °C 1010.0 hPa SSE 9.7 km/h 17.2 km/h 57% 0.0 mm 219 W/m2
16:57 19.2 °C 10.2 °C 1010.0 hPa SE 7.2 km/h 17.2 km/h 56% 0.0 mm 258 W/m2
17:02 19.3 °C 10.3 °C 1010.0 hPa ESE 9.7 km/h 17.2 km/h 56% 0.0 mm 521 W/m2
17:07 19.8 °C 10.2 °C 1010.0 hPa ESE 7.2 km/h 20.9 km/h 54% 0.0 mm 253 W/m2
17:12 19.8 °C 10.2 °C 1009.7 hPa ESE 7.2 km/h 20.9 km/h 54% 0.0 mm 383 W/m2
17:17 20.7 °C 9.6 °C 1009.7 hPa ESE 12.2 km/h 19.5 km/h 49% 0.0 mm 375 W/m2
17:22 20.4 °C 9.7 °C 1009.7 hPa SE 5.0 km/h 17.2 km/h 50% 0.0 mm 325 W/m2
17:27 20.4 °C 9.3 °C 1009.7 hPa SE 9.7 km/h 15.8 km/h 49% 0.0 mm 289 W/m2
17:32 19.9 °C 10.3 °C 1009.7 hPa ESE 3.5 km/h 15.8 km/h 54% 0.0 mm 291 W/m2
17:37 19.8 °C 10.2 °C 1009.4 hPa ESE 6.1 km/h 15.8 km/h 54% 0.0 mm 260 W/m2
17:42 19.2 °C 9.9 °C 1009.4 hPa SSE 12.2 km/h 19.5 km/h 55% 0.0 mm 194 W/m2
17:47 18.7 °C 10.3 °C 1009.4 hPa SSE 8.7 km/h 19.5 km/h 58% 0.0 mm 163 W/m2
17:52 18.6 °C 10.2 °C 1009.4 hPa SSE 7.2 km/h 14.8 km/h 58% 0.0 mm 162 W/m2
17:57 18.4 °C 10.3 °C 1009.4 hPa SSE 6.1 km/h 15.8 km/h 59% 0.0 mm 132 W/m2
18:02 18.3 °C 10.9 °C 1009.4 hPa SSE 6.1 km/h 17.2 km/h 62% 0.0 mm 118 W/m2
18:07 18.1 °C 10.9 °C 1009.4 hPa SE 11.1 km/h 17.2 km/h 63% 0.0 mm 88 W/m2
18:12 18.0 °C 10.6 °C 1009.4 hPa SE 8.7 km/h 14.8 km/h 62% 0.0 mm 68 W/m2
18:17 17.9 °C 10.5 °C 1009.4 hPa SE 7.2 km/h 14.8 km/h 62% 0.0 mm 88 W/m2
18:22 17.8 °C 10.4 °C 1009.0 hPa SE 6.1 km/h 13.4 km/h 62% 0.0 mm 83 W/m2
18:27 17.8 °C 10.7 °C 1009.4 hPa SE 1.1 km/h 13.4 km/h 63% 0.0 mm 75 W/m2
18:32 17.9 °C 10.8 °C 1009.0 hPa SE 1.1 km/h 13.4 km/h 63% 0.0 mm 81 W/m2
18:37 17.9 °C 11.0 °C 1009.0 hPa ESE 2.6 km/h 12.2 km/h 64% 0.0 mm 78 W/m2
18:42 17.9 °C 11.0 °C 1009.0 hPa ESE 5.0 km/h 12.2 km/h 64% 0.0 mm 87 W/m2
18:47 17.9 °C 11.0 °C 1009.0 hPa ESE 5.0 km/h 12.2 km/h 64% 0.0 mm 90 W/m2
18:52 17.9 °C 11.0 °C 1009.0 hPa ESE 6.1 km/h 11.1 km/h 64% 0.0 mm 74 W/m2
18:57 18.0 °C 11.3 °C 1009.0 hPa Calm   9.7 km/h 65% 0.0 mm 87 W/m2
19:02 18.1 °C 11.7 °C 1009.0 hPa SE 1.1 km/h 11.1 km/h 66% 0.0 mm 76 W/m2
19:07 18.1 °C 11.7 °C 1008.7 hPa SE 3.5 km/h 15.8 km/h 66% 0.0 mm 67 W/m2
19:12 18.0 °C 11.8 °C 1009.0 hPa SE 8.7 km/h 15.8 km/h 67% 0.0 mm 48 W/m2
19:17 17.8 °C 11.2 °C 1009.0 hPa SE 5.0 km/h 12.2 km/h 65% 0.0 mm 37 W/m2
19:22 17.5 °C 11.1 °C 1009.0 hPa ESE 8.7 km/h 12.2 km/h 66% 0.0 mm 36 W/m2
19:27 17.5 °C 10.8 °C 1008.7 hPa ESE 9.7 km/h 12.2 km/h 65% 0.0 mm 33 W/m2
19:32 17.3 °C 10.7 °C 1009.0 hPa ESE 6.1 km/h 17.2 km/h 65% 0.0 mm 28 W/m2
19:37 17.3 °C 10.7 °C 1008.7 hPa ESE 8.7 km/h 17.2 km/h 65% 0.0 mm 29 W/m2
19:42 17.2 °C 10.8 °C 1009.0 hPa ESE 8.7 km/h 12.2 km/h 66% 0.0 mm 29 W/m2
19:47 17.2 °C 10.6 °C 1009.0 hPa ESE 3.5 km/h 12.2 km/h 65% 0.0 mm 24 W/m2
19:52 17.2 °C 10.8 °C 1009.0 hPa Calm   12.2 km/h 66% 0.0 mm 19 W/m2
19:57 17.1 °C 10.7 °C 1009.0 hPa East 5.0 km/h 11.1 km/h 66% 0.0 mm 13 W/m2
20:02 17.0 °C 10.6 °C 1009.0 hPa Calm   8.7 km/h 66% 0.0 mm 6 W/m2
20:07 17.0 °C 10.4 °C 1009.0 hPa East 7.2 km/h 9.7 km/h 65% 0.0 mm 4 W/m2
20:12 16.9 °C 10.7 °C 1009.0 hPa East 6.1 km/h 9.7 km/h 67% 0.0 mm 2 W/m2
20:17 16.8 °C 10.9 °C 1009.0 hPa East 5.0 km/h 8.7 km/h 68% 0.0 mm 0 W/m2
20:22 16.8 °C 11.1 °C 1009.0 hPa Calm   7.2 km/h 69% 0.0 mm 0 W/m2
20:27 16.7 °C 11.0 °C 1009.0 hPa ESE 5.0 km/h 8.7 km/h 69% 0.0 mm 0 W/m2
20:32 16.7 °C 11.0 °C 1009.0 hPa East 5.0 km/h 8.7 km/h 69% 0.0 mm 0 W/m2
20:37 16.6 °C 10.9 °C 1009.0 hPa East 1.1 km/h 7.2 km/h 69% 0.0 mm 0 W/m2
20:42 16.6 °C 11.1 °C 1009.0 hPa East 6.1 km/h 8.7 km/h 70% 0.0 mm 0 W/m2
20:47 16.6 °C 11.3 °C 1009.0 hPa ESE 7.2 km/h 9.7 km/h 71% 0.0 mm 0 W/m2
20:52 16.5 °C 11.2 °C 1009.0 hPa ESE 2.6 km/h 9.7 km/h 71% 0.0 mm 0 W/m2
20:57 16.5 °C 11.2 °C 1009.0 hPa Calm   9.7 km/h 71% 0.0 mm 0 W/m2
21:02 16.5 °C 11.4 °C 1009.0 hPa ESE 2.6 km/h 8.7 km/h 72% 0.0 mm 0 W/m2
21:07 16.4 °C 11.3 °C 1009.0 hPa East 3.5 km/h 8.7 km/h 72% 0.0 mm 0 W/m2
21:12 16.4 °C 11.3 °C 1009.0 hPa East 2.6 km/h 8.7 km/h 72% 0.0 mm 0 W/m2
21:17 16.3 °C 11.3 °C 1009.0 hPa ENE 6.1 km/h 11.1 km/h 72% 0.0 mm 0 W/m2
21:22 16.3 °C 11.3 °C 1009.0 hPa East 3.5 km/h 11.1 km/h 72% 0.0 mm 0 W/m2
21:27 16.3 °C 11.4 °C 1009.0 hPa East 2.6 km/h 11.1 km/h 73% 0.0 mm 0 W/m2
21:32 16.2 °C 11.4 °C 1009.0 hPa East 2.6 km/h 11.1 km/h 73% 0.0 mm 0 W/m2
21:37 16.2 °C 11.4 °C 1009.0 hPa ESE 3.5 km/h 11.1 km/h 73% 0.0 mm 0 W/m2
21:42 16.2 °C 11.4 °C 1009.4 hPa ENE 3.5 km/h 11.1 km/h 73% 0.0 mm 0 W/m2
21:47 16.1 °C 11.4 °C 1009.4 hPa Calm   6.1 km/h 74% 0.0 mm 0 W/m2
21:52 16.0 °C 11.4 °C 1009.4 hPa Calm   6.1 km/h 74% 0.0 mm 0 W/m2
21:57 15.8 °C 11.6 °C 1009.4 hPa NNE 1.1 km/h 3.5 km/h 76% 0.0 mm 0 W/m2
22:02 15.8 °C 11.6 °C 1009.4 hPa NE 3.5 km/h 7.2 km/h 76% 0.0 mm 0 W/m2
22:07 15.7 °C 11.7 °C 1009.4 hPa NE 5.0 km/h 7.2 km/h 77% 0.0 mm 0 W/m2
22:12 15.6 °C 11.8 °C 1009.0 hPa Calm   6.1 km/h 78% 0.0 mm 0 W/m2
22:17 15.6 °C 11.8 °C 1009.4 hPa NE 1.1 km/h 6.1 km/h 78% 0.0 mm 0 W/m2
22:22 15.5 °C 11.7 °C 1009.4 hPa Calm   3.5 km/h 78% 0.0 mm 0 W/m2
22:27 15.4 °C 11.6 °C 1009.4 hPa Calm   3.5 km/h 78% 0.0 mm 0 W/m2
22:32 15.4 °C 11.6 °C 1009.4 hPa Calm   2.6 km/h 78% 0.0 mm 0 W/m2
22:37 15.4 °C 11.8 °C 1009.4 hPa Calm     79% 0.0 mm 0 W/m2
22:42 15.3 °C 11.7 °C 1009.4 hPa NE 1.1 km/h 3.5 km/h 79% 0.0 mm 0 W/m2
22:47 15.3 °C 11.9 °C 1009.4 hPa Calm   3.5 km/h 80% 0.0 mm 0 W/m2
22:52 15.3 °C 11.9 °C 1009.4 hPa NNE 1.1 km/h 2.6 km/h 80% 0.0 mm 0 W/m2
22:57 15.3 °C 12.1 °C 1009.4 hPa NE 2.6 km/h 5.0 km/h 81% 0.0 mm 0 W/m2
23:02 15.3 °C 12.1 °C 1009.4 hPa NE 1.1 km/h 5.0 km/h 81% 0.0 mm 0 W/m2
23:07 15.3 °C 12.1 °C 1009.4 hPa North 3.5 km/h 6.1 km/h 81% 0.0 mm 0 W/m2
23:12 15.4 °C 12.0 °C 1009.0 hPa North 1.1 km/h 6.1 km/h 80% 0.0 mm 0 W/m2
23:17 15.4 °C 12.0 °C 1008.7 hPa North 1.1 km/h 6.1 km/h 80% 0.0 mm 0 W/m2
23:22 15.4 °C 12.0 °C 1009.0 hPa Calm   6.1 km/h 80% 0.0 mm 0 W/m2
23:27 15.3 °C 11.7 °C 1009.0 hPa NNE 2.6 km/h 3.5 km/h 79% 0.0 mm 0 W/m2
23:32 15.3 °C 11.7 °C 1009.0 hPa Calm   3.5 km/h 79% 0.0 mm 0 W/m2
23:37 15.3 °C 11.9 °C 1009.0 hPa NE 5.0 km/h 6.1 km/h 80% 0.0 mm 0 W/m2
23:42 15.3 °C 11.7 °C 1008.7 hPa NE 1.1 km/h 6.1 km/h 79% 0.0 mm 0 W/m2
23:47 15.3 °C 11.7 °C 1008.7 hPa NE 2.6 km/h 6.1 km/h 79% 0.0 mm 0 W/m2
23:52 15.4 °C 11.8 °C 1008.7 hPa NNE 2.6 km/h 6.1 km/h 79% 0.0 mm 0 W/m2
23:57 15.4 °C 11.6 °C 1008.7 hPa NNE 1.1 km/h 6.1 km/h 78% 0.0 mm 0 W/m2
Northern Hawkes Bay. New Zealand Historic Data
Compliments of Weather Underground - 2 mb